sensor_id;sensor_type;location;lat;lon;timestamp;pressure;altitude;pressure_sealevel;temperature;humidity
49545;BME280;74870;42.636;23.302;2024-03-08T00:01:39;93163.97;;;6.09;78.44
49545;BME280;74870;42.636;23.302;2024-03-08T00:04:06;93157.97;;;6.09;78.38
49545;BME280;74870;42.636;23.302;2024-03-08T00:06:32;93138.69;;;5.89;78.57
49545;BME280;74870;42.636;23.302;2024-03-08T00:08:57;93106.09;;;5.57;79.29
49545;BME280;74870;42.636;23.302;2024-03-08T00:11:22;93142.81;;;5.70;79.44
49545;BME280;74870;42.636;23.302;2024-03-08T00:13:51;93158.72;;;5.79;80.53
49545;BME280;74870;42.636;23.302;2024-03-08T00:16:17;93150.38;;;5.77;80.65
49545;BME280;74870;42.636;23.302;2024-03-08T00:18:44;93155.06;;;5.80;80.11
49545;BME280;74870;42.636;23.302;2024-03-08T00:21:10;93156.66;;;5.81;80.25
49545;BME280;74870;42.636;23.302;2024-03-08T00:23:37;93150.63;;;5.80;80.39
49545;BME280;74870;42.636;23.302;2024-03-08T00:26:03;93147.78;;;5.67;80.29
49545;BME280;74870;42.636;23.302;2024-03-08T00:28:29;93151.16;;;5.72;80.72
49545;BME280;74870;42.636;23.302;2024-03-08T00:30:56;93151.69;;;5.79;80.57
49545;BME280;74870;42.636;23.302;2024-03-08T00:33:21;93140.50;;;5.84;80.54
49545;BME280;74870;42.636;23.302;2024-03-08T00:35:46;93147.78;;;5.67;80.43
49545;BME280;74870;42.636;23.302;2024-03-08T00:38:13;93144.38;;;5.66;80.82
49545;BME280;74870;42.636;23.302;2024-03-08T00:40:38;93124.81;;;5.54;80.96
49545;BME280;74870;42.636;23.302;2024-03-08T00:43:05;93135.53;;;5.62;81.04
49545;BME280;74870;42.636;23.302;2024-03-08T00:45:31;93145.66;;;5.54;81.57
49545;BME280;74870;42.636;23.302;2024-03-08T00:47:56;93128.78;;;5.71;81.22
49545;BME280;74870;42.636;23.302;2024-03-08T00:50:22;93132.13;;;5.72;81.24
49545;BME280;74870;42.636;23.302;2024-03-08T00:52:47;93137.09;;;5.73;80.67
49545;BME280;74870;42.636;23.302;2024-03-08T00:55:13;93126.69;;;5.73;80.39
49545;BME280;74870;42.636;23.302;2024-03-08T00:57:38;93125.09;;;5.62;80.29
49545;BME280;74870;42.636;23.302;2024-03-08T01:00:07;93126.16;;;5.51;81.03
49545;BME280;74870;42.636;23.302;2024-03-08T01:02:39;93115.72;;;5.51;81.26
49545;BME280;74870;42.636;23.302;2024-03-08T01:05:05;93114.41;;;5.44;81.42
49545;BME280;74870;42.636;23.302;2024-03-08T01:07:34;93114.41;;;5.39;81.84
49545;BME280;74870;42.636;23.302;2024-03-08T01:10:02;93117.28;;;5.37;81.98
49545;BME280;74870;42.636;23.302;2024-03-08T01:12:28;93112.56;;;5.34;81.68
49545;BME280;74870;42.636;23.302;2024-03-08T01:14:54;93113.34;;;5.40;81.99
49545;BME280;74870;42.636;23.302;2024-03-08T01:17:20;93113.09;;;5.46;81.60
49545;BME280;74870;42.636;23.302;2024-03-08T01:19:45;93108.19;;;5.55;80.50
49545;BME280;74870;42.636;23.302;2024-03-08T01:22:10;93102.19;;;5.49;80.45
49545;BME280;74870;42.636;23.302;2024-03-08T01:24:36;93098.53;;;5.60;80.54
49545;BME280;74870;42.636;23.302;2024-03-08T01:27:02;93106.63;;;5.59;80.04
49545;BME280;74870;42.636;23.302;2024-03-08T01:29:28;93101.41;;;5.59;79.36
49545;BME280;74870;42.636;23.302;2024-03-08T01:31:55;93099.59;;;5.64;78.96
49545;BME280;74870;42.636;23.302;2024-03-08T01:34:21;93096.72;;;5.56;78.93
49545;BME280;74870;42.636;23.302;2024-03-08T01:36:48;93082.91;;;5.40;79.12
49545;BME280;74870;42.636;23.302;2024-03-08T01:39:13;93102.69;;;5.56;78.96
49545;BME280;74870;42.636;23.302;2024-03-08T01:41:39;93080.31;;;5.45;78.86
49545;BME280;74870;42.636;23.302;2024-03-08T01:44:05;93094.09;;;5.56;78.93
49545;BME280;74870;42.636;23.302;2024-03-08T01:46:33;93095.94;;;5.60;78.53
49545;BME280;74870;42.636;23.302;2024-03-08T01:48:59;93097.00;;;5.59;78.92
49545;BME280;74870;42.636;23.302;2024-03-08T01:51:29;93089.16;;;5.54;78.67
49545;BME280;74870;42.636;23.302;2024-03-08T01:53:56;93105.31;;;5.66;77.91
49545;BME280;74870;42.636;23.302;2024-03-08T01:56:25;93068.59;;;5.53;78.00
49545;BME280;74870;42.636;23.302;2024-03-08T01:58:50;93088.38;;;5.54;77.81
49545;BME280;74870;42.636;23.302;2024-03-08T02:01:16;93097.75;;;5.60;78.17
49545;BME280;74870;42.636;23.302;2024-03-08T02:03:44;93092.03;;;5.63;77.98
49545;BME280;74870;42.636;23.302;2024-03-08T02:06:12;93076.38;;;5.48;77.55
49545;BME280;74870;42.636;23.302;2024-03-08T02:08:39;93090.72;;;5.60;77.99
49545;BME280;74870;42.636;23.302;2024-03-08T02:11:04;93085.00;;;5.58;77.70
49545;BME280;74870;42.636;23.302;2024-03-08T02:13:30;93086.06;;;5.57;77.79
49545;BME280;74870;42.636;23.302;2024-03-08T02:16:00;93098.25;;;5.52;77.74
49545;BME280;74870;42.636;23.302;2024-03-08T02:18:27;93086.56;;;5.59;77.25
49545;BME280;74870;42.636;23.302;2024-03-08T02:20:53;93081.59;;;5.43;77.03
49545;BME280;74870;42.636;23.302;2024-03-08T02:23:19;93095.94;;;5.55;77.31
49545;BME280;74870;42.636;23.302;2024-03-08T02:25:45;93095.16;;;5.55;77.23
49545;BME280;74870;42.636;23.302;2024-03-08T02:28:11;93091.25;;;5.47;77.42
49545;BME280;74870;42.636;23.302;2024-03-08T02:30:37;93030.28;;;5.13;77.25
49545;BME280;74870;42.636;23.302;2024-03-08T02:33:04;93096.72;;;5.56;76.71
49545;BME280;74870;42.636;23.302;2024-03-08T02:35:29;93102.44;;;5.53;76.61
49545;BME280;74870;42.636;23.302;2024-03-08T02:37:55;93107.66;;;5.58;76.71
49545;BME280;74870;42.636;23.302;2024-03-08T02:40:20;93107.41;;;5.59;76.55
49545;BME280;74870;42.636;23.302;2024-03-08T02:42:47;93112.31;;;5.56;76.56
49545;BME280;74870;42.636;23.302;2024-03-08T02:45:13;93098.78;;;5.49;77.38
49545;BME280;74870;42.636;23.302;2024-03-08T02:47:39;93080.56;;;5.44;77.12
49545;BME280;74870;42.636;23.302;2024-03-08T02:50:05;93102.44;;;5.53;77.04
49545;BME280;74870;42.636;23.302;2024-03-08T02:52:33;93049.28;;;5.08;77.76
49545;BME280;74870;42.636;23.302;2024-03-08T02:54:59;93116.75;;;5.40;78.55
49545;BME280;74870;42.636;23.302;2024-03-08T02:57:24;93113.34;;;5.30;79.61
49545;BME280;74870;42.636;23.302;2024-03-08T02:59:49;93110.72;;;5.30;79.54
49545;BME280;74870;42.636;23.302;2024-03-08T03:02:15;93115.72;;;5.46;78.93
49545;BME280;74870;42.636;23.302;2024-03-08T03:04:41;93050.84;;;5.20;77.95
49545;BME280;74870;42.636;23.302;2024-03-08T03:07:07;93112.84;;;5.58;77.84
49545;BME280;74870;42.636;23.302;2024-03-08T03:09:32;93088.63;;;5.52;77.05
49545;BME280;74870;42.636;23.302;2024-03-08T03:11:58;93114.41;;;5.74;76.53
49545;BME280;74870;42.636;23.302;2024-03-08T03:14:24;93114.41;;;5.44;75.74
49545;BME280;74870;42.636;23.302;2024-03-08T03:16:52;93119.38;;;5.45;74.78
49545;BME280;74870;42.636;23.302;2024-03-08T03:19:17;93126.63;;;5.38;75.17
49545;BME280;74870;42.636;23.302;2024-03-08T03:21:43;93125.84;;;5.38;75.32
49545;BME280;74870;42.636;23.302;2024-03-08T03:24:08;93115.44;;;5.48;75.05
49545;BME280;74870;42.636;23.302;2024-03-08T03:26:38;93121.97;;;5.50;74.46
49545;BME280;74870;42.636;23.302;2024-03-08T03:29:07;93133.94;;;5.56;74.10
49545;BME280;74870;42.636;23.302;2024-03-08T03:31:34;93132.91;;;5.62;73.93
49545;BME280;74870;42.636;23.302;2024-03-08T03:34:00;93129.78;;;5.70;73.63
49545;BME280;74870;42.636;23.302;2024-03-08T03:36:31;93135.53;;;5.67;73.16
49545;BME280;74870;42.636;23.302;2024-03-08T03:38:57;93119.63;;;5.64;73.38
49545;BME280;74870;42.636;23.302;2024-03-08T03:41:43;93122.75;;;5.56;73.71
49545;BME280;74870;42.636;23.302;2024-03-08T03:44:11;93117.81;;;5.54;73.15
49545;BME280;74870;42.636;23.302;2024-03-08T03:46:36;93137.88;;;5.74;73.03
49545;BME280;74870;42.636;23.302;2024-03-08T03:49:02;93113.66;;;5.63;72.37
49545;BME280;74870;42.636;23.302;2024-03-08T03:51:28;93136.81;;;5.80;72.18
49545;BME280;74870;42.636;23.302;2024-03-08T03:53:54;93137.09;;;5.73;72.01
49545;BME280;74870;42.636;23.302;2024-03-08T03:56:25;93132.66;;;5.79;72.30
49545;BME280;74870;42.636;23.302;2024-03-08T03:58:50;93142.03;;;5.80;72.37
49545;BME280;74870;42.636;23.302;2024-03-08T04:01:16;93136.31;;;5.83;72.18
49545;BME280;74870;42.636;23.302;2024-03-08T04:03:41;93141.56;;;5.88;71.46
49545;BME280;74870;42.636;23.302;2024-03-08T04:06:08;93138.19;;;5.87;71.53
49545;BME280;74870;42.636;23.302;2024-03-08T04:08:33;93148.03;;;5.80;71.57
49545;BME280;74870;42.636;23.302;2024-03-08T04:11:00;93147.53;;;5.73;70.00
49545;BME280;74870;42.636;23.302;2024-03-08T04:13:25;93153.75;;;5.72;70.38
49545;BME280;74870;42.636;23.302;2024-03-08T04:15:51;93153.75;;;5.72;69.93
49545;BME280;74870;42.636;23.302;2024-03-08T04:18:17;93146.47;;;5.64;69.58
49545;BME280;74870;42.636;23.302;2024-03-08T04:20:43;93160.28;;;5.65;69.42
49545;BME280;74870;42.636;23.302;2024-03-08T04:23:08;93154.81;;;5.66;69.68
49545;BME280;74870;42.636;23.302;2024-03-08T04:25:34;93162.63;;;5.61;69.78
49545;BME280;74870;42.636;23.302;2024-03-08T04:27:59;93164.97;;;5.63;70.55
49545;BME280;74870;42.636;23.302;2024-03-08T04:30:25;93147.47;;;5.48;71.40
49545;BME280;74870;42.636;23.302;2024-03-08T04:32:53;93172.78;;;5.68;70.87
49545;BME280;74870;42.636;23.302;2024-03-08T04:35:19;93176.16;;;5.68;70.57
49545;BME280;74870;42.636;23.302;2024-03-08T04:37:45;93184.22;;;5.72;69.91
49545;BME280;74870;42.636;23.302;2024-03-08T04:40:11;93182.44;;;5.67;70.30
49545;BME280;74870;42.636;23.302;2024-03-08T04:42:37;93184.50;;;5.65;70.16
49545;BME280;74870;42.636;23.302;2024-03-08T04:45:05;93181.63;;;5.67;70.65
49545;BME280;74870;42.636;23.302;2024-03-08T04:47:30;93181.88;;;5.60;71.17
49545;BME280;74870;42.636;23.302;2024-03-08T04:49:56;93172.50;;;5.54;70.01
49545;BME280;74870;42.636;23.302;2024-03-08T04:52:22;93180.34;;;5.69;69.81
49545;BME280;74870;42.636;23.302;2024-03-08T04:54:47;93171.47;;;5.70;69.80
49545;BME280;74870;42.636;23.302;2024-03-08T04:57:13;93183.47;;;5.61;69.50
49545;BME280;74870;42.636;23.302;2024-03-08T04:59:39;93160.53;;;5.53;69.10
49545;BME280;74870;42.636;23.302;2024-03-08T05:02:05;93120.63;;;5.28;69.42
49545;BME280;74870;42.636;23.302;2024-03-08T05:04:32;93185.78;;;5.63;69.30
49545;BME280;74870;42.636;23.302;2024-03-08T05:06:57;93168.06;;;5.50;69.24
49545;BME280;74870;42.636;23.302;2024-03-08T05:09:22;93193.88;;;5.61;70.08
49545;BME280;74870;42.636;23.302;2024-03-08T05:11:48;93195.41;;;5.52;70.16
49545;BME280;74870;42.636;23.302;2024-03-08T05:14:15;93191.50;;;5.50;69.84
49545;BME280;74870;42.636;23.302;2024-03-08T05:16:47;93195.97;;;5.59;69.48
49545;BME280;74870;42.636;23.302;2024-03-08T05:19:16;93204.28;;;5.56;69.31
49545;BME280;74870;42.636;23.302;2024-03-08T05:21:48;93200.88;;;5.51;69.66
49545;BME280;74870;42.636;23.302;2024-03-08T05:24:14;93203.47;;;5.46;69.40
49545;BME280;74870;42.636;23.302;2024-03-08T05:26:41;93191.22;;;5.41;69.85
49545;BME280;74870;42.636;23.302;2024-03-08T05:29:07;93187.28;;;5.34;70.12
49545;BME280;74870;42.636;23.302;2024-03-08T05:31:49;93215.72;;;5.50;69.89
49545;BME280;74870;42.636;23.302;2024-03-08T05:34:16;93221.72;;;5.51;70.96
49545;BME280;74870;42.636;23.302;2024-03-08T05:36:42;93211.53;;;5.44;70.79
49545;BME280;74870;42.636;23.302;2024-03-08T05:39:12;93205.28;;;5.35;71.10
49545;BME280;74870;42.636;23.302;2024-03-08T05:41:41;93224.56;;;5.54;71.04
49545;BME280;74870;42.636;23.302;2024-03-08T05:44:08;93207.13;;;5.50;70.80
49545;BME280;74870;42.636;23.302;2024-03-08T05:46:34;93218.09;;;5.57;70.79
49545;BME280;74870;42.636;23.302;2024-03-08T05:49:01;93241.81;;;5.70;70.80
49545;BME280;74870;42.636;23.302;2024-03-08T05:51:33;93246.22;;;5.70;70.54
49545;BME280;74870;42.636;23.302;2024-03-08T05:54:02;93248.84;;;5.65;71.27
49545;BME280;74870;42.636;23.302;2024-03-08T05:56:28;93251.19;;;5.61;71.68
49545;BME280;74870;42.636;23.302;2024-03-08T05:58:54;93257.69;;;5.59;72.06
49545;BME280;74870;42.636;23.302;2024-03-08T06:01:19;93256.88;;;5.53;72.51
49545;BME280;74870;42.636;23.302;2024-03-08T06:03:45;93266.28;;;5.59;72.64
49545;BME280;74870;42.636;23.302;2024-03-08T06:06:14;93265.75;;;5.57;73.41
49545;BME280;74870;42.636;23.302;2024-03-08T06:08:39;93269.16;;;5.63;72.63
49545;BME280;74870;42.636;23.302;2024-03-08T06:11:05;93267.03;;;5.60;72.16
49545;BME280;74870;42.636;23.302;2024-03-08T06:13:34;93274.66;;;5.71;72.56
49545;BME280;74870;42.636;23.302;2024-03-08T06:16:00;93267.09;;;5.75;72.94
49545;BME280;74870;42.636;23.302;2024-03-08T06:18:26;93181.31;;;5.33;71.89
49545;BME280;74870;42.636;23.302;2024-03-08T06:20:51;93270.31;;;5.97;71.66
49545;BME280;74870;42.636;23.302;2024-03-08T06:23:17;93276.28;;;6.03;71.59
49545;BME280;74870;42.636;23.302;2024-03-08T06:25:44;93273.72;;;6.08;70.66
49545;BME280;74870;42.636;23.302;2024-03-08T06:28:09;93277.63;;;6.15;69.22
49545;BME280;74870;42.636;23.302;2024-03-08T06:30:35;93271.31;;;5.86;69.87
49545;BME280;74870;42.636;23.302;2024-03-08T06:33:00;93277.56;;;5.85;70.66
49545;BME280;74870;42.636;23.302;2024-03-08T06:35:26;93276.53;;;5.96;70.77
49545;BME280;74870;42.636;23.302;2024-03-08T06:37:51;93281.03;;;5.39;71.41
49545;BME280;74870;42.636;23.302;2024-03-08T06:40:16;93281.88;;;4.97;72.00
49545;BME280;74870;42.636;23.302;2024-03-08T06:42:42;93292.00;;;4.99;72.16
49545;BME280;74870;42.636;23.302;2024-03-08T06:45:08;93289.19;;;4.64;73.23
49545;BME280;74870;42.636;23.302;2024-03-08T06:47:35;93276.47;;;4.31;74.75
49545;BME280;74870;42.636;23.302;2024-03-08T06:50:01;93290.06;;;4.43;75.26
49545;BME280;74870;42.636;23.302;2024-03-08T06:52:27;93277.53;;;4.35;75.80
49545;BME280;74870;42.636;23.302;2024-03-08T06:54:52;93286.72;;;4.42;76.18
49545;BME280;74870;42.636;23.302;2024-03-08T06:57:18;93295.59;;;4.51;76.85
49545;BME280;74870;42.636;23.302;2024-03-08T06:59:45;93299.53;;;4.54;76.38
49545;BME280;74870;42.636;23.302;2024-03-08T07:02:11;93287.06;;;4.56;76.46
49545;BME280;74870;42.636;23.302;2024-03-08T07:04:36;93305.91;;;4.73;76.18
49545;BME280;74870;42.636;23.302;2024-03-08T07:07:06;93306.13;;;4.66;76.13
49545;BME280;74870;42.636;23.302;2024-03-08T07:09:37;93299.69;;;4.74;76.46
49545;BME280;74870;42.636;23.302;2024-03-08T07:12:03;93281.22;;;4.75;75.99
49545;BME280;74870;42.636;23.302;2024-03-08T07:14:29;93302.41;;;4.94;75.36
49545;BME280;74870;42.636;23.302;2024-03-08T07:16:56;93299.13;;;4.72;75.49
49545;BME280;74870;42.636;23.302;2024-03-08T07:19:21;93254.44;;;4.38;75.23
49545;BME280;74870;42.636;23.302;2024-03-08T07:21:47;93304.09;;;4.73;74.46
49545;BME280;74870;42.636;23.302;2024-03-08T07:24:12;93278.19;;;4.52;74.78
49545;BME280;74870;42.636;23.302;2024-03-08T07:27:04;93289.63;;;4.51;75.00
49545;BME280;74870;42.636;23.302;2024-03-08T07:29:31;93308.88;;;4.55;75.12
49545;BME280;74870;42.636;23.302;2024-03-08T07:31:56;93310.47;;;4.56;74.26
49545;BME280;74870;42.636;23.302;2024-03-08T07:34:37;93305.59;;;4.64;75.59
49545;BME280;74870;42.636;23.302;2024-03-08T07:37:05;93311.69;;;4.85;73.47
49545;BME280;74870;42.636;23.302;2024-03-08T07:39:30;93308.88;;;4.91;72.42
49545;BME280;74870;42.636;23.302;2024-03-08T07:41:57;93293.34;;;4.60;72.99
49545;BME280;74870;42.636;23.302;2024-03-08T07:44:22;93317.94;;;4.84;71.28
49545;BME280;74870;42.636;23.302;2024-03-08T07:46:48;93288.53;;;4.78;69.98
49545;BME280;74870;42.636;23.302;2024-03-08T07:49:14;93323.72;;;4.91;70.48
49545;BME280;74870;42.636;23.302;2024-03-08T07:51:40;93318.34;;;5.02;70.16
49545;BME280;74870;42.636;23.302;2024-03-08T07:54:05;93322.03;;;5.11;69.78
49545;BME280;74870;42.636;23.302;2024-03-08T07:56:31;93292.13;;;5.14;68.97
49545;BME280;74870;42.636;23.302;2024-03-08T07:58:56;93321.94;;;5.43;67.92
49545;BME280;74870;42.636;23.302;2024-03-08T08:01:22;93325.03;;;5.40;67.29
49545;BME280;74870;42.636;23.302;2024-03-08T08:03:47;93328.22;;;5.52;67.16
49545;BME280;74870;42.636;23.302;2024-03-08T08:06:16;93314.75;;;5.65;67.73
49545;BME280;74870;42.636;23.302;2024-03-08T08:08:42;93319.44;;;5.63;66.89
49545;BME280;74870;42.636;23.302;2024-03-08T08:11:08;93322.34;;;5.82;66.98
49545;BME280;74870;42.636;23.302;2024-03-08T08:13:34;93301.75;;;5.75;67.72
49545;BME280;74870;42.636;23.302;2024-03-08T08:15:59;93315.59;;;5.86;67.98
49545;BME280;74870;42.636;23.302;2024-03-08T08:18:25;93318.25;;;5.91;67.20
49545;BME280;74870;42.636;23.302;2024-03-08T08:20:51;93313.31;;;6.00;68.25
49545;BME280;74870;42.636;23.302;2024-03-08T08:23:17;93319.06;;;6.07;67.87
49545;BME280;74870;42.636;23.302;2024-03-08T08:25:45;93315.41;;;6.03;65.74
49545;BME280;74870;42.636;23.302;2024-03-08T08:28:10;93318.28;;;6.16;66.02
49545;BME280;74870;42.636;23.302;2024-03-08T08:30:38;93317.81;;;6.44;66.29
49545;BME280;74870;42.636;23.302;2024-03-08T08:33:03;93319.13;;;6.67;65.07
49545;BME280;74870;42.636;23.302;2024-03-08T08:35:30;93297.19;;;6.73;64.21
49545;BME280;74870;42.636;23.302;2024-03-08T08:37:56;93317.53;;;6.91;63.44
49545;BME280;74870;42.636;23.302;2024-03-08T08:40:24;93313.63;;;7.04;63.69
49545;BME280;74870;42.636;23.302;2024-03-08T08:42:51;93311.25;;;7.07;64.59
49545;BME280;74870;42.636;23.302;2024-03-08T08:45:18;93313.81;;;7.27;63.26
49545;BME280;74870;42.636;23.302;2024-03-08T08:47:46;93253.13;;;6.36;63.10
49545;BME280;74870;42.636;23.302;2024-03-08T08:50:12;93293.50;;;6.99;64.50
49545;BME280;74870;42.636;23.302;2024-03-08T08:52:38;93302.81;;;7.45;63.26
49545;BME280;74870;42.636;23.302;2024-03-08T08:55:04;93301.03;;;7.95;62.66
49545;BME280;74870;42.636;23.302;2024-03-08T08:57:31;93289.03;;;7.94;60.36
49545;BME280;74870;42.636;23.302;2024-03-08T08:59:58;93303.09;;;8.08;60.84
49545;BME280;74870;42.636;23.302;2024-03-08T09:02:24;93306.88;;;8.69;60.65
49545;BME280;74870;42.636;23.302;2024-03-08T09:04:51;93307.06;;;8.78;58.08
49545;BME280;74870;42.636;23.302;2024-03-08T09:07:16;93291.88;;;8.80;59.71
49545;BME280;74870;42.636;23.302;2024-03-08T09:09:44;93302.88;;;8.77;58.79
49545;BME280;74870;42.636;23.302;2024-03-08T09:12:10;93302.28;;;8.56;58.71
49545;BME280;74870;42.636;23.302;2024-03-08T09:14:39;93297.03;;;8.56;58.02
49545;BME280;74870;42.636;23.302;2024-03-08T09:17:05;93310.06;;;8.66;58.44
49545;BME280;74870;42.636;23.302;2024-03-08T09:19:31;93305.13;;;8.11;58.32
49545;BME280;74870;42.636;23.302;2024-03-08T09:21:58;93280.06;;;8.05;59.17
49545;BME280;74870;42.636;23.302;2024-03-08T09:24:23;93273.88;;;7.91;59.10
49545;BME280;74870;42.636;23.302;2024-03-08T09:26:49;93302.84;;;7.99;60.41
49545;BME280;74870;42.636;23.302;2024-03-08T09:29:14;93319.09;;;7.91;60.08
49545;BME280;74870;42.636;23.302;2024-03-08T09:31:40;93300.34;;;7.79;60.16
49545;BME280;74870;42.636;23.302;2024-03-08T09:34:06;93297.19;;;7.82;58.98
49545;BME280;74870;42.636;23.302;2024-03-08T09:36:33;93265.63;;;7.69;58.80
49545;BME280;74870;42.636;23.302;2024-03-08T09:38:59;93304.09;;;8.12;58.26
49545;BME280;74870;42.636;23.302;2024-03-08T09:41:25;93302.16;;;8.32;57.90
49545;BME280;74870;42.636;23.302;2024-03-08T09:43:51;93294.16;;;8.09;57.48
49545;BME280;74870;42.636;23.302;2024-03-08T09:46:18;93271.78;;;7.93;57.23
49545;BME280;74870;42.636;23.302;2024-03-08T09:48:44;93300.41;;;8.13;57.13
49545;BME280;74870;42.636;23.302;2024-03-08T09:51:12;93292.31;;;8.14;56.12
49545;BME280;74870;42.636;23.302;2024-03-08T09:53:40;93294.69;;;8.11;54.15
49545;BME280;74870;42.636;23.302;2024-03-08T09:56:07;93285.00;;;8.11;54.65
49545;BME280;74870;42.636;23.302;2024-03-08T09:58:33;93306.13;;;8.25;54.50
49545;BME280;74870;42.636;23.302;2024-03-08T10:00:59;93304.03;;;8.22;54.65
49545;BME280;74870;42.636;23.302;2024-03-08T10:03:28;93298.72;;;8.42;53.73
49545;BME280;74870;42.636;23.302;2024-03-08T10:05:54;93246.59;;;8.07;51.86
49545;BME280;74870;42.636;23.302;2024-03-08T10:08:22;93284.72;;;8.18;53.35
49545;BME280;74870;42.636;23.302;2024-03-08T10:10:47;93304.25;;;8.30;53.66
49545;BME280;74870;42.636;23.302;2024-03-08T10:13:14;93307.09;;;8.73;53.82
49545;BME280;74870;42.636;23.302;2024-03-08T10:15:42;93292.91;;;8.79;52.90
49545;BME280;74870;42.636;23.302;2024-03-08T10:18:07;93296.00;;;9.14;53.14
49545;BME280;74870;42.636;23.302;2024-03-08T10:20:33;93307.41;;;9.52;53.19
49545;BME280;74870;42.636;23.302;2024-03-08T10:23:00;93281.19;;;9.52;53.38
49545;BME280;74870;42.636;23.302;2024-03-08T10:25:26;93279.91;;;9.50;51.38
49545;BME280;74870;42.636;23.302;2024-03-08T10:27:51;93293.59;;;9.47;51.50
49545;BME280;74870;42.636;23.302;2024-03-08T10:30:17;93305.47;;;9.63;52.34
49545;BME280;74870;42.636;23.302;2024-03-08T10:32:47;93267.34;;;8.99;52.04
49545;BME280;74870;42.636;23.302;2024-03-08T10:35:13;93290.47;;;8.92;53.44
49545;BME280;74870;42.636;23.302;2024-03-08T10:37:49;93280.63;;;8.79;54.35
49545;BME280;74870;42.636;23.302;2024-03-08T10:40:24;93289.78;;;8.77;55.44
49545;BME280;74870;42.636;23.302;2024-03-08T10:42:57;93288.31;;;8.66;52.97
49545;BME280;74870;42.636;23.302;2024-03-08T10:50:53;93279.81;;;8.79;54.18
49545;BME280;74870;42.636;23.302;2024-03-08T10:53:18;93278.88;;;8.98;52.83
49545;BME280;74870;42.636;23.302;2024-03-08T10:55:47;93271.56;;;8.95;53.19
49545;BME280;74870;42.636;23.302;2024-03-08T10:58:15;93272.28;;;9.01;53.78
49545;BME280;74870;42.636;23.302;2024-03-08T11:00:41;93283.75;;;8.48;54.10
49545;BME280;74870;42.636;23.302;2024-03-08T11:03:07;93246.00;;;8.20;54.81
49545;BME280;74870;42.636;23.302;2024-03-08T11:05:37;93251.94;;;8.30;54.26
49545;BME280;74870;42.636;23.302;2024-03-08T11:08:15;93240.00;;;8.14;54.47
49545;BME280;74870;42.636;23.302;2024-03-08T11:10:54;93261.66;;;8.25;54.89
49545;BME280;74870;42.636;23.302;2024-03-08T11:13:37;93261.78;;;8.05;53.88
49545;BME280;74870;42.636;23.302;2024-03-08T11:16:08;93257.03;;;8.07;53.87
49545;BME280;74870;42.636;23.302;2024-03-08T11:18:35;93265.69;;;8.02;53.85
49545;BME280;74870;42.636;23.302;2024-03-08T11:21:05;93242.09;;;8.17;54.13
49545;BME280;74870;42.636;23.302;2024-03-08T11:23:37;93255.69;;;8.58;53.28
49545;BME280;74870;42.636;23.302;2024-03-08T11:26:03;93253.81;;;8.59;52.58
49545;BME280;74870;42.636;23.302;2024-03-08T11:28:33;93245.63;;;8.70;52.38
49545;BME280;74870;42.636;23.302;2024-03-08T11:33:28;93252.16;;;9.49;53.99
49545;BME280;74870;42.636;23.302;2024-03-08T11:36:07;93241.97;;;9.47;50.96
49545;BME280;74870;42.636;23.302;2024-03-08T11:38:43;93247.34;;;9.79;50.64
49545;BME280;74870;42.636;23.302;2024-03-08T11:41:09;93246.19;;;9.85;49.83
49545;BME280;74870;42.636;23.302;2024-03-08T11:43:42;93229.34;;;9.49;50.05
49545;BME280;74870;42.636;23.302;2024-03-08T11:46:11;93247.03;;;9.15;51.30
49545;BME280;74870;42.636;23.302;2024-03-08T11:48:41;93237.91;;;8.84;52.24
49545;BME280;74870;42.636;23.302;2024-03-08T11:51:13;93243.31;;;8.92;51.85
49545;BME280;74870;42.636;23.302;2024-03-08T11:53:39;93239.44;;;8.85;51.36
49545;BME280;74870;42.636;23.302;2024-03-08T11:56:11;93239.91;;;8.63;51.70
49545;BME280;74870;42.636;23.302;2024-03-08T11:58:38;93235.91;;;8.71;52.28
49545;BME280;74870;42.636;23.302;2024-03-08T12:01:05;93221.41;;;8.55;53.49
49545;BME280;74870;42.636;23.302;2024-03-08T12:03:34;93240.84;;;8.77;54.70
49545;BME280;74870;42.636;23.302;2024-03-08T12:06:00;93238.31;;;8.67;52.87
49545;BME280;74870;42.636;23.302;2024-03-08T12:08:27;93239.72;;;8.55;53.41
49545;BME280;74870;42.636;23.302;2024-03-08T12:10:55;93243.50;;;8.38;53.25
49545;BME280;74870;42.636;23.302;2024-03-08T12:13:30;93238.84;;;8.35;53.32
49545;BME280;74870;42.636;23.302;2024-03-08T12:16:02;93215.66;;;8.19;52.99
49545;BME280;74870;42.636;23.302;2024-03-08T12:18:38;93240.38;;;8.36;53.29
49545;BME280;74870;42.636;23.302;2024-03-08T12:21:08;93232.00;;;8.39;54.03
49545;BME280;74870;42.636;23.302;2024-03-08T12:23:34;93222.13;;;8.31;52.70
49545;BME280;74870;42.636;23.302;2024-03-08T12:28:38;93229.09;;;8.46;52.39
49545;BME280;74870;42.636;23.302;2024-03-08T12:31:07;93234.75;;;8.58;52.09
49545;BME280;74870;42.636;23.302;2024-03-08T12:33:36;93225.94;;;8.73;51.38
49545;BME280;74870;42.636;23.302;2024-03-08T12:36:02;93224.91;;;8.74;50.68
49545;BME280;74870;42.636;23.302;2024-03-08T12:38:32;93220.81;;;8.91;50.94
49545;BME280;74870;42.636;23.302;2024-03-08T12:40:58;93229.91;;;9.22;51.08
49545;BME280;74870;42.636;23.302;2024-03-08T12:43:24;93203.25;;;8.92;51.60
49545;BME280;74870;42.636;23.302;2024-03-08T12:45:50;93221.22;;;9.27;51.76
49545;BME280;74870;42.636;23.302;2024-03-08T12:48:16;93207.84;;;9.28;50.20
49545;BME280;74870;42.636;23.302;2024-03-08T12:50:42;93211.75;;;9.50;50.29
49545;BME280;74870;42.636;23.302;2024-03-08T12:53:13;93215.63;;;9.57;50.02
49545;BME280;74870;42.636;23.302;2024-03-08T12:55:38;93210.97;;;9.07;50.46
49545;BME280;74870;42.636;23.302;2024-03-08T12:58:05;93177.38;;;8.90;49.57
49545;BME280;74870;42.636;23.302;2024-03-08T13:00:35;93204.19;;;9.01;49.57
49545;BME280;74870;42.636;23.302;2024-03-08T13:03:02;93210.00;;;8.74;50.31
49545;BME280;74870;42.636;23.302;2024-03-08T13:05:28;93216.59;;;8.67;50.61
49545;BME280;74870;42.636;23.302;2024-03-08T13:07:53;93218.09;;;8.73;51.76
49545;BME280;74870;42.636;23.302;2024-03-08T13:10:20;93204.16;;;8.82;50.96